Arcola, Illinois
Current Conditions -  °F | °C
As of 8:17 AM on Tuesday 27 Jan 2015 (Local Time) from KMTO Reporting Station
Haze Haze  
Wind Chill: 23°   Ceiling: 800
Heat Index: 31°   Visibility: 4mi
Dew Point: 29°   Wind: 9mph
Humidity: 92%   Direction: 10°N
Pressure: 30.05"   Gusts: NA
Location:  39.68°N, 88.31°W
Report Text: KMTO 271417Z AUTO 01008KT 4SM BR BKN008 OVC033 M01/M02 A3005 RMK AO2 CIG 006V010 T10061017
Loading
Personal Weather Stations






























Interactive Weather Map New forecast layout! Learn more

10-Day Weather Forecast

Advertisements
Track Severe Weather on mobile